createdAt,value
2018-11-25T00:00:36.617Z,2.40
2018-11-25T00:03:11.283Z,2.50
2018-11-25T00:05:45.802Z,2.50
2018-11-25T00:08:20.281Z,2.50
2018-11-25T00:10:54.845Z,2.50
2018-11-25T00:13:29.414Z,2.50
2018-11-25T00:16:03.931Z,2.50
2018-11-25T00:18:38.626Z,2.40
2018-11-25T00:21:13.213Z,2.40
2018-11-25T00:23:47.751Z,2.40
2018-11-25T00:26:22.395Z,2.40
2018-11-25T00:28:56.950Z,2.40
2018-11-25T00:31:31.691Z,2.40
2018-11-25T00:34:06.070Z,2.40
2018-11-25T00:36:40.743Z,2.40
2018-11-25T00:39:15.372Z,2.40
2018-11-25T00:41:50.531Z,2.40
2018-11-25T00:44:25.472Z,2.50
2018-11-25T00:46:59.990Z,2.50
2018-11-25T00:49:35.716Z,2.50
2018-11-25T00:52:10.499Z,2.40
2018-11-25T00:54:45.608Z,2.40
2018-11-25T00:57:20.535Z,2.40
2018-11-25T00:59:56.469Z,2.50
2018-11-25T01:02:31.881Z,2.60
2018-11-25T01:05:06.839Z,2.60
2018-11-25T01:07:41.741Z,2.50
2018-11-25T01:10:17.342Z,2.40
2018-11-25T01:12:52.256Z,2.40
2018-11-25T01:15:27.931Z,2.40
2018-11-25T01:18:03.041Z,2.40
2018-11-25T01:20:37.495Z,2.40
2018-11-25T01:23:12.300Z,2.40
2018-11-25T01:25:47.125Z,2.40
2018-11-25T01:28:21.708Z,2.40
2018-11-25T01:30:57.025Z,2.40
2018-11-25T01:33:32.654Z,2.40
2018-11-25T01:36:07.683Z,2.40
2018-11-25T01:38:42.356Z,2.40
2018-11-25T01:41:17.262Z,2.40
2018-11-25T01:43:51.938Z,2.40
2018-11-25T01:46:26.499Z,2.40
2018-11-25T01:49:00.997Z,2.40
2018-11-25T01:51:35.623Z,2.40
2018-11-25T01:54:10.133Z,2.40
2018-11-25T01:56:45.139Z,2.40
2018-11-25T01:59:19.712Z,2.50
2018-11-25T02:01:54.365Z,2.50
2018-11-25T02:04:28.979Z,2.60
2018-11-25T02:07:03.916Z,2.70
2018-11-25T02:09:38.824Z,2.70
2018-11-25T02:12:14.260Z,2.60
2018-11-25T02:14:48.905Z,2.60
2018-11-25T02:17:23.674Z,2.50
2018-11-25T02:19:58.342Z,2.60
2018-11-25T02:22:32.834Z,2.60
2018-11-25T02:25:07.527Z,2.70
2018-11-25T02:27:42.024Z,2.60
2018-11-25T02:30:17.559Z,2.50
2018-11-25T02:32:51.959Z,2.50
2018-11-25T02:35:26.562Z,2.50
2018-11-25T02:38:01.142Z,2.50
2018-11-25T02:40:36.151Z,2.50
2018-11-25T02:43:10.762Z,2.50
2018-11-25T02:45:45.523Z,2.50
2018-11-25T02:48:20.271Z,2.50
2018-11-25T02:50:55.123Z,2.50
2018-11-25T02:53:29.692Z,2.50
2018-11-25T02:56:04.677Z,2.50
2018-11-25T02:58:39.329Z,2.50
2018-11-25T03:01:14.931Z,2.50
2018-11-25T03:03:49.566Z,2.50
2018-11-25T03:06:24.151Z,2.50
2018-11-25T03:08:58.864Z,2.50
2018-11-25T03:11:33.366Z,2.50
2018-11-25T03:14:07.967Z,2.50
2018-11-25T03:16:42.546Z,2.50
2018-11-25T03:19:17.161Z,2.40
2018-11-25T03:21:52.104Z,2.50
2018-11-25T03:24:26.959Z,2.50
2018-11-25T03:27:01.649Z,2.40
2018-11-25T03:29:36.443Z,2.50
2018-11-25T03:32:11.986Z,2.50
2018-11-25T03:34:46.547Z,2.50
2018-11-25T03:37:21.172Z,2.40
2018-11-25T03:39:55.879Z,2.40
2018-11-25T03:42:30.752Z,2.40
2018-11-25T03:45:08.123Z,2.50
2018-11-25T03:47:42.506Z,2.50
2018-11-25T03:50:17.788Z,2.50
2018-11-25T03:52:52.451Z,2.50
2018-11-25T03:55:27.156Z,2.50
2018-11-25T03:58:02.689Z,2.50
2018-11-25T04:00:37.402Z,2.50
2018-11-25T04:03:12.131Z,2.40
2018-11-25T04:05:46.923Z,2.40
2018-11-25T04:08:21.515Z,2.50
2018-11-25T04:10:56.275Z,2.50
2018-11-25T04:13:30.918Z,2.50
2018-11-25T04:16:05.596Z,2.50
2018-11-25T04:18:40.162Z,2.50
2018-11-25T04:21:15.925Z,2.40
2018-11-25T04:23:50.433Z,2.40
2018-11-25T04:26:24.975Z,2.40
2018-11-25T04:28:59.640Z,2.50
2018-11-25T04:31:34.467Z,2.50
2018-11-25T04:34:09.119Z,2.50
2018-11-25T04:36:43.582Z,2.50
2018-11-25T04:39:18.358Z,2.40
2018-11-25T04:41:53.179Z,2.40
2018-11-25T04:44:27.925Z,2.40
2018-11-25T04:47:02.816Z,2.50
2018-11-25T04:49:37.926Z,2.50
2018-11-25T04:52:12.733Z,2.50
2018-11-25T04:54:47.646Z,2.50
2018-11-25T04:57:22.375Z,2.50
2018-11-25T04:59:57.035Z,2.60
2018-11-25T05:02:32.537Z,3.50
2018-11-25T05:05:10.429Z,2.60
2018-11-25T05:07:45.162Z,2.70
2018-11-25T05:10:19.750Z,2.60
2018-11-25T05:12:54.280Z,2.60
2018-11-25T05:15:28.975Z,2.60
2018-11-25T05:18:03.439Z,2.70
2018-11-25T05:20:38.404Z,2.70
2018-11-25T05:23:13.393Z,2.70
2018-11-25T05:25:48.123Z,2.70
2018-11-25T05:28:22.758Z,2.70
2018-11-25T05:30:57.355Z,2.60
2018-11-25T05:33:32.312Z,2.60
2018-11-25T05:36:06.878Z,2.70
2018-11-25T05:38:41.398Z,2.70
2018-11-25T05:41:16.135Z,2.70
2018-11-25T05:43:50.917Z,2.60
2018-11-25T05:46:25.812Z,2.60
2018-11-25T05:49:00.584Z,2.60
2018-11-25T05:51:35.304Z,2.60
2018-11-25T05:54:09.891Z,2.60
2018-11-25T05:56:44.291Z,2.60
2018-11-25T05:59:18.983Z,2.60
2018-11-25T06:01:53.924Z,2.60
2018-11-25T06:04:28.610Z,2.70
2018-11-25T06:07:03.272Z,2.60
2018-11-25T06:09:38.176Z,2.60
2018-11-25T06:12:13.035Z,2.60
2018-11-25T06:14:47.954Z,2.60
2018-11-25T06:17:22.903Z,2.60
2018-11-25T06:19:57.555Z,2.60
2018-11-25T06:22:32.263Z,2.60
2018-11-25T06:25:08.883Z,2.70
2018-11-25T06:27:43.657Z,2.70
2018-11-25T06:30:19.347Z,2.80
2018-11-25T06:32:53.959Z,2.70
2018-11-25T06:35:28.602Z,2.70
2018-11-25T06:38:03.622Z,2.80
2018-11-25T06:40:38.114Z,2.80
2018-11-25T06:43:12.707Z,2.70
2018-11-25T06:45:47.329Z,2.80
2018-11-25T06:48:21.826Z,2.70
2018-11-25T06:50:56.700Z,2.70
2018-11-25T06:53:31.479Z,2.60
2018-11-25T06:56:06.331Z,2.60
2018-11-25T06:58:41.266Z,2.60
2018-11-25T07:01:15.806Z,2.70
2018-11-25T07:03:50.274Z,2.60
2018-11-25T07:06:24.858Z,2.70
2018-11-25T07:09:00.807Z,2.70
2018-11-25T07:11:35.426Z,2.70
2018-11-25T07:14:09.997Z,2.70
2018-11-25T07:16:44.611Z,2.70
2018-11-25T07:19:20.121Z,2.80
2018-11-25T07:21:54.706Z,2.80
2018-11-25T07:24:29.727Z,2.80
2018-11-25T07:27:04.686Z,2.80
2018-11-25T07:29:39.487Z,2.80
2018-11-25T07:32:14.312Z,2.80
2018-11-25T07:34:50.672Z,2.80
2018-11-25T07:37:25.295Z,2.80
2018-11-25T07:39:59.987Z,2.80
2018-11-25T07:42:35.613Z,2.70
2018-11-25T07:45:12.612Z,2.80
2018-11-25T07:47:47.707Z,2.80
2018-11-25T07:50:22.247Z,2.90
2018-11-25T07:52:57.619Z,2.90
2018-11-25T07:55:32.198Z,2.80
2018-11-25T07:58:06.912Z,2.90
2018-11-25T08:00:41.979Z,2.90
2018-11-25T08:03:17.079Z,3.00
2018-11-25T08:05:51.783Z,3.10
2018-11-25T08:08:26.377Z,3.00
2018-11-25T08:11:01.142Z,3.10
2018-11-25T08:13:35.864Z,3.10
2018-11-25T08:16:10.651Z,3.10
2018-11-25T08:18:45.235Z,3.10
2018-11-25T08:21:20.128Z,3.00
2018-11-25T08:23:55.601Z,3.00
2018-11-25T08:26:30.450Z,3.00
2018-11-25T08:29:05.091Z,3.10
2018-11-25T08:31:40.671Z,3.10
2018-11-25T08:34:16.104Z,3.00
2018-11-25T08:36:51.022Z,3.10
2018-11-25T08:39:25.796Z,3.10
2018-11-25T08:42:01.401Z,3.20
2018-11-25T08:44:38.037Z,3.30
2018-11-25T08:47:12.469Z,3.30
2018-11-25T08:49:47.116Z,3.30
2018-11-25T08:52:22.635Z,3.30
2018-11-25T08:54:57.740Z,3.40
2018-11-25T08:57:32.371Z,3.30
2018-11-25T09:00:17.267Z,3.30
2018-11-25T09:02:53.202Z,3.30
2018-11-25T09:05:27.700Z,3.40
2018-11-25T09:08:02.411Z,3.50
2018-11-25T09:10:37.666Z,3.40
2018-11-25T09:13:12.957Z,3.50
2018-11-25T09:15:47.437Z,3.40
2018-11-25T09:18:22.094Z,3.40
2018-11-25T09:20:56.582Z,3.40
2018-11-25T09:23:31.050Z,3.40
2018-11-25T09:26:05.975Z,3.30
2018-11-25T09:28:43.057Z,3.40
2018-11-25T09:31:17.799Z,3.50
2018-11-25T09:33:52.449Z,3.50
2018-11-25T09:36:27.448Z,3.60
2018-11-25T09:39:02.087Z,3.70
2018-11-25T09:41:36.962Z,3.70
2018-11-25T09:44:18.293Z,3.80
2018-11-25T09:46:53.828Z,3.80
2018-11-25T09:49:28.432Z,3.90
2018-11-25T09:52:03.505Z,4.00
2018-11-25T09:54:37.963Z,3.80
2018-11-25T09:57:12.578Z,3.80
2018-11-25T09:59:47.344Z,3.90
2018-11-25T10:02:24.251Z,3.80
2018-11-25T10:04:59.258Z,3.80
2018-11-25T10:07:34.299Z,3.70
2018-11-25T10:10:13.319Z,3.70
2018-11-25T10:12:48.139Z,3.60
2018-11-25T10:15:24.056Z,3.70
2018-11-25T10:18:00.062Z,3.60
2018-11-25T10:20:33.989Z,3.70
2018-11-25T10:23:08.755Z,3.70
2018-11-25T10:25:43.437Z,3.80
2018-11-25T10:28:18.124Z,3.70
2018-11-25T10:30:52.591Z,3.60
2018-11-25T10:33:27.801Z,3.60
2018-11-25T10:36:04.591Z,3.60
2018-11-25T10:38:38.207Z,3.60
2018-11-25T10:41:12.745Z,3.70
2018-11-25T10:43:48.164Z,3.80
2018-11-25T10:46:23.664Z,3.80
2018-11-25T10:48:58.443Z,3.70
2018-11-25T10:51:33.210Z,3.80
2018-11-25T10:54:08.634Z,3.70
2018-11-25T10:56:43.533Z,3.80
2018-11-25T10:59:18.395Z,3.70
2018-11-25T11:01:58.743Z,3.80
2018-11-25T11:04:38.877Z,3.80
2018-11-25T11:07:18.937Z,3.80
2018-11-25T11:09:55.420Z,3.80
2018-11-25T11:12:30.823Z,3.80
2018-11-25T11:17:52.406Z,3.70
2018-11-25T11:20:27.791Z,3.70
2018-11-25T11:23:03.743Z,3.70
2018-11-25T11:25:39.523Z,3.70
2018-11-25T11:28:15.760Z,3.70
2018-11-25T11:30:50.558Z,3.80
2018-11-25T11:33:25.920Z,3.80
2018-11-25T11:36:00.818Z,3.80
2018-11-25T11:38:37.623Z,3.80
2018-11-25T11:41:12.483Z,3.80
2018-11-25T11:43:47.963Z,3.80
2018-11-25T11:46:22.938Z,3.80
2018-11-25T11:48:57.962Z,3.90
2018-11-25T11:51:32.831Z,3.80
2018-11-25T11:54:13.375Z,3.90
2018-11-25T11:56:48.352Z,3.90
2018-11-25T11:59:23.480Z,4.00
2018-11-25T12:01:59.664Z,4.00
2018-11-25T12:04:35.390Z,4.00
2018-11-25T12:07:11.281Z,4.00
2018-11-25T12:09:47.176Z,4.00
2018-11-25T12:12:22.036Z,4.00
2018-11-25T12:15:03.520Z,4.00
2018-11-25T12:17:39.430Z,4.00
2018-11-25T12:20:21.225Z,2.00
2018-11-25T12:22:53.660Z,4.00
2018-11-25T12:25:28.703Z,4.10
2018-11-25T12:28:04.727Z,4.00
2018-11-25T12:30:41.909Z,4.00
2018-11-25T12:33:17.409Z,4.00
2018-11-25T12:35:52.852Z,4.00
2018-11-25T12:38:29.065Z,4.00
2018-11-25T12:41:03.887Z,4.10
2018-11-25T12:43:39.574Z,4.00
2018-11-25T12:46:14.455Z,4.00
2018-11-25T12:48:50.665Z,4.10
2018-11-25T12:51:28.472Z,4.10
2018-11-25T12:54:04.072Z,4.10
2018-11-25T12:56:51.631Z,4.10
2018-11-25T12:59:21.260Z,4.10
2018-11-25T13:01:56.110Z,4.10
2018-11-25T13:04:31.042Z,4.10
2018-11-25T13:07:06.371Z,4.20
2018-11-25T13:09:41.246Z,4.20
2018-11-25T13:12:16.393Z,4.20
2018-11-25T13:14:52.100Z,4.20
2018-11-25T13:17:26.908Z,4.20
2018-11-25T13:20:03.763Z,4.20
2018-11-25T13:22:40.458Z,4.20
2018-11-25T13:25:16.257Z,4.20
2018-11-25T13:27:51.731Z,4.20
2018-11-25T13:30:29.230Z,4.30
2018-11-25T13:33:04.311Z,4.20
2018-11-25T13:35:39.600Z,4.30
2018-11-25T13:38:14.932Z,4.40
2018-11-25T13:40:50.411Z,4.40
2018-11-25T13:43:26.691Z,4.40
2018-11-25T13:46:01.634Z,4.40
2018-11-25T13:48:36.620Z,4.40
2018-11-25T13:51:11.622Z,4.40
2018-11-25T13:53:46.687Z,4.30
2018-11-25T13:56:21.917Z,4.20
2018-11-25T13:58:57.386Z,4.10
2018-11-25T14:01:32.419Z,4.20
2018-11-25T14:04:07.477Z,4.20
2018-11-25T14:06:43.000Z,4.20
2018-11-25T14:09:18.239Z,4.20
2018-11-25T14:11:53.362Z,4.20
2018-11-25T14:14:28.006Z,4.20
2018-11-25T14:17:02.720Z,4.20
2018-11-25T14:19:37.515Z,4.20
2018-11-25T14:22:12.230Z,4.20
2018-11-25T14:24:47.699Z,4.30
2018-11-25T14:27:22.232Z,4.30
2018-11-25T14:29:58.661Z,4.20
2018-11-25T14:32:33.450Z,4.20
2018-11-25T14:35:12.074Z,4.20
2018-11-25T14:37:47.787Z,4.20
2018-11-25T14:40:29.077Z,4.10
2018-11-25T14:43:06.501Z,4.10
2018-11-25T14:45:41.243Z,4.10
2018-11-25T14:48:16.236Z,4.10
2018-11-25T14:50:51.007Z,4.10
2018-11-25T14:53:25.723Z,4.10
2018-11-25T14:56:00.409Z,4.20
2018-11-25T14:58:35.045Z,1.10
2018-11-25T15:03:53.161Z,4.00
2018-11-25T15:06:29.338Z,4.10
2018-11-25T15:09:02.638Z,4.10
2018-11-25T15:11:38.667Z,4.10
2018-11-25T15:14:13.227Z,4.10
2018-11-25T15:16:50.321Z,4.10
2018-11-25T15:19:25.249Z,4.10
2018-11-25T15:22:00.144Z,4.20
2018-11-25T15:24:34.691Z,4.20
2018-11-25T15:27:09.943Z,4.20
2018-11-25T15:29:44.655Z,4.20
2018-11-25T15:32:20.159Z,4.30
2018-11-25T15:34:54.804Z,4.20
2018-11-25T15:37:29.710Z,4.20
2018-11-25T15:40:04.924Z,4.10
2018-11-25T15:42:39.828Z,4.10
2018-11-25T15:45:14.482Z,4.10
2018-11-25T15:47:52.343Z,4.10
2018-11-25T15:50:31.466Z,4.10
2018-11-25T15:53:11.520Z,4.20
2018-11-25T15:55:47.809Z,4.20
2018-11-25T15:58:22.262Z,4.20
2018-11-25T16:00:56.997Z,4.20
2018-11-25T16:03:31.451Z,4.20
2018-11-25T16:06:15.648Z,4.10
2018-11-25T16:08:50.163Z,4.10
2018-11-25T16:11:24.619Z,4.10
2018-11-25T16:14:00.105Z,4.10
2018-11-25T16:16:34.656Z,4.20
2018-11-25T16:19:09.369Z,4.20
2018-11-25T16:21:43.974Z,4.20
2018-11-25T16:24:18.577Z,4.20
2018-11-25T16:26:53.111Z,4.10
2018-11-25T16:29:28.239Z,4.20
2018-11-25T16:32:03.556Z,4.10
2018-11-25T16:34:38.499Z,4.10
2018-11-25T16:37:13.154Z,4.10
2018-11-25T16:39:48.929Z,4.10
2018-11-25T16:42:23.452Z,4.10
2018-11-25T16:44:58.108Z,4.10
2018-11-25T16:47:32.703Z,4.10
2018-11-25T16:50:09.274Z,4.20
2018-11-25T16:52:44.942Z,4.20
2018-11-25T16:55:19.784Z,4.20
2018-11-25T16:57:54.315Z,4.20
2018-11-25T17:00:28.929Z,4.20
2018-11-25T17:03:03.495Z,4.20
2018-11-25T17:05:41.179Z,4.20
2018-11-25T17:08:29.096Z,4.20
2018-11-25T17:11:03.663Z,4.20
2018-11-25T17:13:38.578Z,4.20
2018-11-25T17:16:13.388Z,4.20
2018-11-25T17:18:48.331Z,4.30
2018-11-25T17:21:22.879Z,4.20
2018-11-25T17:23:57.636Z,4.20
2018-11-25T17:26:32.233Z,4.30
2018-11-25T17:29:06.795Z,4.30
2018-11-25T17:31:41.312Z,4.30
2018-11-25T17:34:15.923Z,4.30
2018-11-25T17:36:50.542Z,4.30
2018-11-25T17:39:25.891Z,4.30
2018-11-25T17:42:01.625Z,4.30
2018-11-25T17:44:36.326Z,4.30
2018-11-25T17:47:11.118Z,4.30
2018-11-25T17:49:45.901Z,4.30
2018-11-25T17:52:20.687Z,4.30
2018-11-25T17:54:55.363Z,4.30
2018-11-25T17:57:29.992Z,4.30
2018-11-25T18:00:09.690Z,4.30
2018-11-25T18:02:44.146Z,4.30
2018-11-25T18:05:18.666Z,4.30
2018-11-25T18:07:53.200Z,4.30
2018-11-25T18:10:27.859Z,4.30
2018-11-25T18:13:02.455Z,4.30
2018-11-25T18:15:37.068Z,4.30
2018-11-25T18:18:15.483Z,4.30
2018-11-25T18:20:55.186Z,4.30
2018-11-25T18:23:29.671Z,4.30
2018-11-25T18:26:04.190Z,4.30
2018-11-25T18:28:38.785Z,4.30
2018-11-25T18:31:15.785Z,4.30
2018-11-25T18:33:50.339Z,4.30
2018-11-25T18:36:25.065Z,4.30
2018-11-25T18:38:59.573Z,4.40
2018-11-25T18:41:34.370Z,4.40
2018-11-25T18:44:09.007Z,4.40
2018-11-25T18:46:46.952Z,4.40
2018-11-25T18:49:18.246Z,4.40
2018-11-25T18:51:54.340Z,4.40
2018-11-25T18:54:28.892Z,4.40
2018-11-25T18:57:04.349Z,4.50
2018-11-25T18:59:40.062Z,4.50
2018-11-25T19:02:21.109Z,4.50
2018-11-25T19:04:58.096Z,4.50
2018-11-25T19:07:32.885Z,4.50
2018-11-25T19:10:13.965Z,4.50
2018-11-25T19:12:48.917Z,4.50
2018-11-25T19:15:23.712Z,4.50
2018-11-25T19:17:58.463Z,4.40
2018-11-25T19:20:33.135Z,4.40
2018-11-25T19:25:48.544Z,4.40
2018-11-25T19:28:25.113Z,4.50
2018-11-25T19:30:59.837Z,4.40
2018-11-25T19:33:34.989Z,4.40
2018-11-25T19:36:10.069Z,4.40
2018-11-25T19:38:45.467Z,4.50
2018-11-25T19:41:20.384Z,4.50
2018-11-25T19:43:55.246Z,4.50
2018-11-25T19:46:29.846Z,4.50
2018-11-25T19:49:04.710Z,4.50
2018-11-25T19:54:23.404Z,4.50
2018-11-25T19:56:57.852Z,4.50
2018-11-25T19:59:32.442Z,4.50
2018-11-25T20:02:07.070Z,4.50
2018-11-25T20:04:41.916Z,4.50
2018-11-25T20:07:17.535Z,4.50
2018-11-25T20:09:52.070Z,4.60
2018-11-25T20:12:32.166Z,4.60
2018-11-25T20:15:07.759Z,4.60
2018-11-25T20:17:43.211Z,4.60
2018-11-25T20:20:21.463Z,4.60
2018-11-25T20:22:57.021Z,4.50
2018-11-25T20:25:31.860Z,4.90
2018-11-25T20:28:06.616Z,4.40
2018-11-25T20:30:41.333Z,4.50
2018-11-25T20:33:21.199Z,4.50
2018-11-25T20:35:56.213Z,4.60
2018-11-25T20:38:36.427Z,4.50
2018-11-25T20:41:11.503Z,4.60
2018-11-25T20:43:46.385Z,4.60
2018-11-25T20:46:26.485Z,4.50
2018-11-25T20:49:01.410Z,4.60
2018-11-25T20:51:41.577Z,4.60
2018-11-25T20:54:20.510Z,4.60
2018-11-25T20:56:56.020Z,4.60
2018-11-25T20:59:30.835Z,4.50
2018-11-25T21:02:06.477Z,4.60
2018-11-25T21:04:41.384Z,4.60
2018-11-25T21:07:16.425Z,4.60
2018-11-25T21:09:51.390Z,4.60
2018-11-25T21:12:26.300Z,4.60
2018-11-25T21:15:01.228Z,4.60
2018-11-25T21:17:35.932Z,8.60
2018-11-25T21:20:12.965Z,4.50
2018-11-25T21:22:47.783Z,4.50
2018-11-25T21:25:23.540Z,4.60
2018-11-25T21:27:58.176Z,4.60
2018-11-25T21:30:32.628Z,4.60
2018-11-25T21:33:07.199Z,4.60
2018-11-25T21:35:41.994Z,4.60
2018-11-25T21:38:16.749Z,4.50
2018-11-25T21:40:51.403Z,4.50
2018-11-25T21:43:26.193Z,4.60
2018-11-25T21:46:00.872Z,4.60
2018-11-25T21:48:35.871Z,4.60
2018-11-25T21:51:10.414Z,4.60
2018-11-25T21:53:44.979Z,4.60
2018-11-25T21:56:19.567Z,4.50
2018-11-25T21:58:54.154Z,4.50
2018-11-25T22:01:28.653Z,4.60
2018-11-25T22:04:03.563Z,4.60
2018-11-25T22:06:38.266Z,4.60
2018-11-25T22:09:13.101Z,4.60
2018-11-25T22:11:47.869Z,4.60
2018-11-25T22:14:22.397Z,4.60
2018-11-25T22:16:56.955Z,4.60
2018-11-25T22:19:31.707Z,4.60
2018-11-25T22:22:06.579Z,4.60
2018-11-25T22:24:41.194Z,4.60
2018-11-25T22:27:16.534Z,4.60
2018-11-25T22:29:51.333Z,4.60
2018-11-25T22:32:26.040Z,4.60
2018-11-25T22:35:00.783Z,4.60
2018-11-25T22:37:35.458Z,4.60
2018-11-25T22:40:11.365Z,4.60
2018-11-25T22:42:47.133Z,4.60
2018-11-25T22:45:23.275Z,4.60
2018-11-25T22:47:57.955Z,4.60
2018-11-25T22:50:34.053Z,4.60
2018-11-25T22:53:08.971Z,4.60
2018-11-25T22:55:43.768Z,4.70
2018-11-25T22:58:18.358Z,4.60
2018-11-25T23:00:53.463Z,4.70
2018-11-25T23:03:27.956Z,4.70
2018-11-25T23:06:15.410Z,4.70
2018-11-25T23:08:49.997Z,4.60
2018-11-25T23:11:24.542Z,4.60
2018-11-25T23:13:59.195Z,4.60
2018-11-25T23:16:33.755Z,4.60
2018-11-25T23:19:08.282Z,4.70
2018-11-25T23:21:43.079Z,4.60
2018-11-25T23:24:18.655Z,4.70
2018-11-25T23:26:53.524Z,4.70
2018-11-25T23:29:28.391Z,4.70
2018-11-25T23:32:03.188Z,4.70
2018-11-25T23:34:37.967Z,4.70
2018-11-25T23:37:13.136Z,4.70
2018-11-25T23:39:47.961Z,4.70
2018-11-25T23:42:22.883Z,4.70
2018-11-25T23:44:59.703Z,4.70
2018-11-25T23:47:34.338Z,4.60
2018-11-25T23:50:10.087Z,4.60
2018-11-25T23:52:46.296Z,4.60
2018-11-25T23:55:21.279Z,4.60
2018-11-25T23:57:56.244Z,4.60
